sensor_id;sensor_type;location;lat;lon;timestamp;temperature;humidity
10980;DHT22;5543;51.734;8.744;2023-02-13T00:01:06;7.50;99.90
10980;DHT22;5543;51.734;8.744;2023-02-13T00:03:34;7.50;99.90
10980;DHT22;5543;51.734;8.744;2023-02-13T00:06:02;7.80;99.90
10980;DHT22;5543;51.734;8.744;2023-02-13T00:08:30;7.50;99.90
10980;DHT22;5543;51.734;8.744;2023-02-13T00:10:58;7.50;99.90
10980;DHT22;5543;51.734;8.744;2023-02-13T00:13:27;7.50;99.90
10980;DHT22;5543;51.734;8.744;2023-02-13T00:15:55;7.50;99.90
10980;DHT22;5543;51.734;8.744;2023-02-13T00:18:26;7.40;99.90
10980;DHT22;5543;51.734;8.744;2023-02-13T00:20:58;7.40;99.90
10980;DHT22;5543;51.734;8.744;2023-02-13T00:23:29;7.50;99.90
10980;DHT22;5543;51.734;8.744;2023-02-13T00:25:58;7.40;99.90
10980;DHT22;5543;51.734;8.744;2023-02-13T00:28:26;7.40;99.90
10980;DHT22;5543;51.734;8.744;2023-02-13T00:31:01;7.30;99.90
10980;DHT22;5543;51.734;8.744;2023-02-13T00:33:31;7.40;99.90
10980;DHT22;5543;51.734;8.744;2023-02-13T00:36:04;7.40;99.90
10980;DHT22;5543;51.734;8.744;2023-02-13T00:38:33;7.40;99.90
10980;DHT22;5543;51.734;8.744;2023-02-13T00:41:01;7.40;99.90
10980;DHT22;5543;51.734;8.744;2023-02-13T00:43:29;7.40;99.90
10980;DHT22;5543;51.734;8.744;2023-02-13T00:45:58;7.40;99.90
10980;DHT22;5543;51.734;8.744;2023-02-13T00:48:27;7.40;99.90
10980;DHT22;5543;51.734;8.744;2023-02-13T00:50:58;7.40;99.90
10980;DHT22;5543;51.734;8.744;2023-02-13T00:53:26;7.40;99.90
10980;DHT22;5543;51.734;8.744;2023-02-13T00:55:54;7.30;99.90
10980;DHT22;5543;51.734;8.744;2023-02-13T00:58:23;7.40;99.90
10980;DHT22;5543;51.734;8.744;2023-02-13T01:00:51;7.40;99.90
10980;DHT22;5543;51.734;8.744;2023-02-13T01:03:21;7.40;99.90
10980;DHT22;5543;51.734;8.744;2023-02-13T01:05:50;7.40;99.90
10980;DHT22;5543;51.734;8.744;2023-02-13T01:08:19;7.40;99.90
10980;DHT22;5543;51.734;8.744;2023-02-13T01:10:48;7.40;99.90
10980;DHT22;5543;51.734;8.744;2023-02-13T01:13:17;7.40;99.90
10980;DHT22;5543;51.734;8.744;2023-02-13T01:15:46;7.40;99.90
10980;DHT22;5543;51.734;8.744;2023-02-13T01:18:15;7.40;99.90
10980;DHT22;5543;51.734;8.744;2023-02-13T01:20:44;7.40;99.90
10980;DHT22;5543;51.734;8.744;2023-02-13T01:23:12;7.40;99.90
10980;DHT22;5543;51.734;8.744;2023-02-13T01:25:42;7.40;99.90
10980;DHT22;5543;51.734;8.744;2023-02-13T01:28:10;7.40;99.90
10980;DHT22;5543;51.734;8.744;2023-02-13T01:30:38;7.40;99.90
10980;DHT22;5543;51.734;8.744;2023-02-13T01:33:06;7.40;99.90
10980;DHT22;5543;51.734;8.744;2023-02-13T01:35:34;7.30;99.90
10980;DHT22;5543;51.734;8.744;2023-02-13T01:38:05;7.30;99.90
10980;DHT22;5543;51.734;8.744;2023-02-13T01:40:33;7.30;99.90
10980;DHT22;5543;51.734;8.744;2023-02-13T01:43:04;7.30;99.90
10980;DHT22;5543;51.734;8.744;2023-02-13T01:45:33;7.30;99.90
10980;DHT22;5543;51.734;8.744;2023-02-13T01:48:03;7.30;99.90
10980;DHT22;5543;51.734;8.744;2023-02-13T01:50:36;7.30;99.90
10980;DHT22;5543;51.734;8.744;2023-02-13T01:53:09;7.20;99.90
10980;DHT22;5543;51.734;8.744;2023-02-13T01:55:42;7.20;99.90
10980;DHT22;5543;51.734;8.744;2023-02-13T01:58:18;7.20;99.90
10980;DHT22;5543;51.734;8.744;2023-02-13T02:00:47;7.20;99.90
10980;DHT22;5543;51.734;8.744;2023-02-13T02:03:19;7.10;99.90
10980;DHT22;5543;51.734;8.744;2023-02-13T02:05:49;7.10;99.90
10980;DHT22;5543;51.734;8.744;2023-02-13T02:08:18;7.10;99.90
10980;DHT22;5543;51.734;8.744;2023-02-13T02:10:47;7.10;99.90
10980;DHT22;5543;51.734;8.744;2023-02-13T02:13:19;7.10;99.90
10980;DHT22;5543;51.734;8.744;2023-02-13T02:15:49;7.10;99.90
10980;DHT22;5543;51.734;8.744;2023-02-13T02:18:19;7.30;99.90
10980;DHT22;5543;51.734;8.744;2023-02-13T02:24:16;7.00;99.90
10980;DHT22;5543;51.734;8.744;2023-02-13T02:32:57;7.00;99.90
10980;DHT22;5543;51.734;8.744;2023-02-13T02:35:35;7.00;99.90
10980;DHT22;5543;51.734;8.744;2023-02-13T02:38:17;7.00;99.90
10980;DHT22;5543;51.734;8.744;2023-02-13T02:40:57;7.00;99.90
10980;DHT22;5543;51.734;8.744;2023-02-13T02:43:37;7.00;99.90
10980;DHT22;5543;51.734;8.744;2023-02-13T02:46:12;7.00;99.90
10980;DHT22;5543;51.734;8.744;2023-02-13T02:48:49;7.20;99.90
10980;DHT22;5543;51.734;8.744;2023-02-13T02:52:00;7.00;99.90
10980;DHT22;5543;51.734;8.744;2023-02-13T02:54:33;7.20;99.90
10980;DHT22;5543;51.734;8.744;2023-02-13T02:57:32;7.00;99.90
10980;DHT22;5543;51.734;8.744;2023-02-13T03:00:16;7.00;99.90
10980;DHT22;5543;51.734;8.744;2023-02-13T03:03:04;7.00;99.90
10980;DHT22;5543;51.734;8.744;2023-02-13T03:05:55;6.90;99.90
10980;DHT22;5543;51.734;8.744;2023-02-13T03:08:46;6.90;99.90
10980;DHT22;5543;51.734;8.744;2023-02-13T03:11:37;6.90;99.90
10980;DHT22;5543;51.734;8.744;2023-02-13T03:14:25;6.90;99.90
10980;DHT22;5543;51.734;8.744;2023-02-13T03:16:55;6.90;99.90
10980;DHT22;5543;51.734;8.744;2023-02-13T03:19:48;7.10;99.90
10980;DHT22;5543;51.734;8.744;2023-02-13T03:22:44;6.90;99.90
10980;DHT22;5543;51.734;8.744;2023-02-13T03:25:19;6.90;99.90
10980;DHT22;5543;51.734;8.744;2023-02-13T03:27:57;6.90;99.90
10980;DHT22;5543;51.734;8.744;2023-02-13T03:30:55;6.90;99.90
10980;DHT22;5543;51.734;8.744;2023-02-13T03:36:24;6.90;99.90
10980;DHT22;5543;51.734;8.744;2023-02-13T03:39:18;6.90;99.90
10980;DHT22;5543;51.734;8.744;2023-02-13T03:41:51;6.90;99.90
10980;DHT22;5543;51.734;8.744;2023-02-13T03:44:27;6.90;99.90
10980;DHT22;5543;51.734;8.744;2023-02-13T03:46:59;6.90;99.90
10980;DHT22;5543;51.734;8.744;2023-02-13T03:49:30;6.90;99.90
10980;DHT22;5543;51.734;8.744;2023-02-13T03:52:22;7.00;99.90
10980;DHT22;5543;51.734;8.744;2023-02-13T03:54:55;6.90;99.90
10980;DHT22;5543;51.734;8.744;2023-02-13T03:57:43;6.90;99.90
10980;DHT22;5543;51.734;8.744;2023-02-13T04:00:39;7.00;99.90
10980;DHT22;5543;51.734;8.744;2023-02-13T04:03:13;6.90;99.90
10980;DHT22;5543;51.734;8.744;2023-02-13T04:05:47;6.90;99.90
10980;DHT22;5543;51.734;8.744;2023-02-13T04:08:16;6.90;99.90
10980;DHT22;5543;51.734;8.744;2023-02-13T04:10:51;6.90;99.90
10980;DHT22;5543;51.734;8.744;2023-02-13T04:13:26;6.90;99.90
10980;DHT22;5543;51.734;8.744;2023-02-13T04:15:57;6.90;99.90
10980;DHT22;5543;51.734;8.744;2023-02-13T04:18:29;6.90;99.90
10980;DHT22;5543;51.734;8.744;2023-02-13T04:21:01;7.00;99.90
10980;DHT22;5543;51.734;8.744;2023-02-13T04:23:29;7.00;99.90
10980;DHT22;5543;51.734;8.744;2023-02-13T04:25:59;7.00;99.90
10980;DHT22;5543;51.734;8.744;2023-02-13T04:28:29;7.00;99.90
10980;DHT22;5543;51.734;8.744;2023-02-13T04:30:59;7.00;99.90
10980;DHT22;5543;51.734;8.744;2023-02-13T04:33:28;7.00;99.90
10980;DHT22;5543;51.734;8.744;2023-02-13T04:35:56;6.90;99.90
10980;DHT22;5543;51.734;8.744;2023-02-13T04:38:24;7.00;99.90
10980;DHT22;5543;51.734;8.744;2023-02-13T04:40:52;6.90;99.90
10980;DHT22;5543;51.734;8.744;2023-02-13T04:43:21;7.10;99.90
10980;DHT22;5543;51.734;8.744;2023-02-13T04:45:51;6.90;99.90
10980;DHT22;5543;51.734;8.744;2023-02-13T04:48:19;6.90;99.90
10980;DHT22;5543;51.734;8.744;2023-02-13T04:50:47;6.90;99.90
10980;DHT22;5543;51.734;8.744;2023-02-13T04:53:15;6.80;99.90
10980;DHT22;5543;51.734;8.744;2023-02-13T04:55:43;6.80;99.90
10980;DHT22;5543;51.734;8.744;2023-02-13T04:58:11;6.80;99.90
10980;DHT22;5543;51.734;8.744;2023-02-13T05:00:41;6.70;99.90
10980;DHT22;5543;51.734;8.744;2023-02-13T05:03:11;6.70;99.90
10980;DHT22;5543;51.734;8.744;2023-02-13T05:05:39;6.70;99.90
10980;DHT22;5543;51.734;8.744;2023-02-13T05:08:08;6.50;99.90
10980;DHT22;5543;51.734;8.744;2023-02-13T05:10:36;6.60;99.90
10980;DHT22;5543;51.734;8.744;2023-02-13T05:13:05;6.80;99.90
10980;DHT22;5543;51.734;8.744;2023-02-13T05:15:33;6.60;99.90
10980;DHT22;5543;51.734;8.744;2023-02-13T05:18:02;6.50;99.90
10980;DHT22;5543;51.734;8.744;2023-02-13T05:20:31;6.60;99.90
10980;DHT22;5543;51.734;8.744;2023-02-13T05:22:59;6.70;99.90
10980;DHT22;5543;51.734;8.744;2023-02-13T05:25:44;6.50;99.90
10980;DHT22;5543;51.734;8.744;2023-02-13T05:28:12;6.50;99.90
10980;DHT22;5543;51.734;8.744;2023-02-13T05:30:55;6.50;99.90
10980;DHT22;5543;51.734;8.744;2023-02-13T05:33:25;6.50;99.90
10980;DHT22;5543;51.734;8.744;2023-02-13T05:35:53;6.70;99.90
10980;DHT22;5543;51.734;8.744;2023-02-13T05:38:22;6.50;99.90
10980;DHT22;5543;51.734;8.744;2023-02-13T05:40:50;6.50;99.90
10980;DHT22;5543;51.734;8.744;2023-02-13T05:43:18;6.40;99.90
10980;DHT22;5543;51.734;8.744;2023-02-13T05:45:47;6.40;99.90
10980;DHT22;5543;51.734;8.744;2023-02-13T05:48:15;6.50;99.90
10980;DHT22;5543;51.734;8.744;2023-02-13T05:50:46;6.40;99.90
10980;DHT22;5543;51.734;8.744;2023-02-13T05:53:14;6.70;99.90
10980;DHT22;5543;51.734;8.744;2023-02-13T05:55:42;6.30;99.90
10980;DHT22;5543;51.734;8.744;2023-02-13T05:58:10;6.40;99.90
10980;DHT22;5543;51.734;8.744;2023-02-13T06:00:39;6.40;99.90
10980;DHT22;5543;51.734;8.744;2023-02-13T06:03:07;6.40;99.90
10980;DHT22;5543;51.734;8.744;2023-02-13T06:05:35;6.40;99.90
10980;DHT22;5543;51.734;8.744;2023-02-13T06:08:04;6.40;99.90
10980;DHT22;5543;51.734;8.744;2023-02-13T06:10:32;6.40;99.90
10980;DHT22;5543;51.734;8.744;2023-02-13T06:13:00;6.30;99.90
10980;DHT22;5543;51.734;8.744;2023-02-13T06:15:28;6.40;99.90
10980;DHT22;5543;51.734;8.744;2023-02-13T06:17:57;6.40;99.90
10980;DHT22;5543;51.734;8.744;2023-02-13T06:20:25;6.40;99.90
10980;DHT22;5543;51.734;8.744;2023-02-13T06:22:53;6.40;99.90
10980;DHT22;5543;51.734;8.744;2023-02-13T06:25:22;6.40;99.90
10980;DHT22;5543;51.734;8.744;2023-02-13T06:27:51;6.30;99.90
10980;DHT22;5543;51.734;8.744;2023-02-13T06:30:19;6.30;99.90
10980;DHT22;5543;51.734;8.744;2023-02-13T06:32:48;6.30;99.90
10980;DHT22;5543;51.734;8.744;2023-02-13T06:35:16;6.30;99.90
10980;DHT22;5543;51.734;8.744;2023-02-13T06:37:44;6.30;99.90
10980;DHT22;5543;51.734;8.744;2023-02-13T06:40:13;6.30;99.90
10980;DHT22;5543;51.734;8.744;2023-02-13T06:42:44;6.30;99.90
10980;DHT22;5543;51.734;8.744;2023-02-13T06:45:13;6.30;99.90
10980;DHT22;5543;51.734;8.744;2023-02-13T06:47:42;6.30;99.90
10980;DHT22;5543;51.734;8.744;2023-02-13T06:50:11;6.30;99.90
10980;DHT22;5543;51.734;8.744;2023-02-13T06:52:45;6.30;99.90
10980;DHT22;5543;51.734;8.744;2023-02-13T06:55:13;6.30;99.90
10980;DHT22;5543;51.734;8.744;2023-02-13T06:57:43;6.20;99.90
10980;DHT22;5543;51.734;8.744;2023-02-13T07:00:14;6.30;99.90
10980;DHT22;5543;51.734;8.744;2023-02-13T07:02:44;6.20;99.90
10980;DHT22;5543;51.734;8.744;2023-02-13T07:05:13;6.20;99.90
10980;DHT22;5543;51.734;8.744;2023-02-13T07:07:42;6.30;99.90
10980;DHT22;5543;51.734;8.744;2023-02-13T07:10:11;6.20;99.90
10980;DHT22;5543;51.734;8.744;2023-02-13T07:12:40;6.50;99.90
10980;DHT22;5543;51.734;8.744;2023-02-13T07:15:11;6.30;99.90
10980;DHT22;5543;51.734;8.744;2023-02-13T07:17:40;6.30;99.90
10980;DHT22;5543;51.734;8.744;2023-02-13T07:20:09;6.30;99.90
10980;DHT22;5543;51.734;8.744;2023-02-13T07:22:37;6.30;99.90
10980;DHT22;5543;51.734;8.744;2023-02-13T07:25:08;6.30;99.90
10980;DHT22;5543;51.734;8.744;2023-02-13T07:27:36;6.50;99.90
10980;DHT22;5543;51.734;8.744;2023-02-13T07:30:05;6.40;99.90
10980;DHT22;5543;51.734;8.744;2023-02-13T07:32:35;6.40;99.90
10980;DHT22;5543;51.734;8.744;2023-02-13T07:35:04;6.40;99.90
10980;DHT22;5543;51.734;8.744;2023-02-13T07:37:32;6.40;99.90
10980;DHT22;5543;51.734;8.744;2023-02-13T07:40:01;6.40;99.90
10980;DHT22;5543;51.734;8.744;2023-02-13T07:42:32;6.40;99.90
10980;DHT22;5543;51.734;8.744;2023-02-13T07:45:00;6.50;99.90
10980;DHT22;5543;51.734;8.744;2023-02-13T07:47:32;6.50;99.90
10980;DHT22;5543;51.734;8.744;2023-02-13T07:50:02;6.80;99.90
10980;DHT22;5543;51.734;8.744;2023-02-13T07:52:31;6.50;99.90
10980;DHT22;5543;51.734;8.744;2023-02-13T07:55:00;6.50;99.90
10980;DHT22;5543;51.734;8.744;2023-02-13T07:57:28;6.60;99.90
10980;DHT22;5543;51.734;8.744;2023-02-13T07:59:57;6.60;99.90
10980;DHT22;5543;51.734;8.744;2023-02-13T08:02:25;6.60;99.90
10980;DHT22;5543;51.734;8.744;2023-02-13T08:04:53;6.70;99.90
10980;DHT22;5543;51.734;8.744;2023-02-13T08:07:22;6.70;99.90
10980;DHT22;5543;51.734;8.744;2023-02-13T08:09:50;6.70;99.90
10980;DHT22;5543;51.734;8.744;2023-02-13T08:12:36;6.80;99.90
10980;DHT22;5543;51.734;8.744;2023-02-13T08:15:06;6.80;99.90
10980;DHT22;5543;51.734;8.744;2023-02-13T08:17:34;6.70;99.90
10980;DHT22;5543;51.734;8.744;2023-02-13T08:20:02;6.80;99.90
10980;DHT22;5543;51.734;8.744;2023-02-13T08:22:32;6.80;99.90
10980;DHT22;5543;51.734;8.744;2023-02-13T08:25:00;6.80;99.90
10980;DHT22;5543;51.734;8.744;2023-02-13T08:27:28;6.80;99.90
10980;DHT22;5543;51.734;8.744;2023-02-13T08:29:57;6.90;99.90
10980;DHT22;5543;51.734;8.744;2023-02-13T08:32:25;6.90;99.90
10980;DHT22;5543;51.734;8.744;2023-02-13T08:34:53;7.00;99.90
10980;DHT22;5543;51.734;8.744;2023-02-13T08:37:22;7.00;99.90
10980;DHT22;5543;51.734;8.744;2023-02-13T08:39:52;7.00;99.90
10980;DHT22;5543;51.734;8.744;2023-02-13T08:42:20;7.10;99.90
10980;DHT22;5543;51.734;8.744;2023-02-13T08:44:49;7.10;99.90
10980;DHT22;5543;51.734;8.744;2023-02-13T08:47:17;7.10;99.90
10980;DHT22;5543;51.734;8.744;2023-02-13T08:49:45;7.20;99.90
10980;DHT22;5543;51.734;8.744;2023-02-13T08:52:13;7.10;99.90
10980;DHT22;5543;51.734;8.744;2023-02-13T08:54:41;7.20;99.90
10980;DHT22;5543;51.734;8.744;2023-02-13T08:57:11;7.20;99.90
10980;DHT22;5543;51.734;8.744;2023-02-13T08:59:39;7.20;99.90
10980;DHT22;5543;51.734;8.744;2023-02-13T09:02:09;7.30;99.90
10980;DHT22;5543;51.734;8.744;2023-02-13T09:04:37;7.40;99.90
10980;DHT22;5543;51.734;8.744;2023-02-13T09:07:05;7.40;99.90
10980;DHT22;5543;51.734;8.744;2023-02-13T09:09:34;7.50;99.90
10980;DHT22;5543;51.734;8.744;2023-02-13T09:12:02;7.60;99.90
10980;DHT22;5543;51.734;8.744;2023-02-13T09:14:32;7.60;99.90
10980;DHT22;5543;51.734;8.744;2023-02-13T09:17:00;7.70;99.90
10980;DHT22;5543;51.734;8.744;2023-02-13T09:19:29;7.70;99.90
10980;DHT22;5543;51.734;8.744;2023-02-13T09:21:57;7.70;99.90
10980;DHT22;5543;51.734;8.744;2023-02-13T09:24:25;7.70;99.90
10980;DHT22;5543;51.734;8.744;2023-02-13T09:26:54;7.70;99.90
10980;DHT22;5543;51.734;8.744;2023-02-13T09:29:22;7.70;99.90
10980;DHT22;5543;51.734;8.744;2023-02-13T09:31:52;7.70;99.90
10980;DHT22;5543;51.734;8.744;2023-02-13T09:34:20;7.70;99.90
10980;DHT22;5543;51.734;8.744;2023-02-13T09:36:50;7.80;99.90
10980;DHT22;5543;51.734;8.744;2023-02-13T09:39:19;7.70;99.90
10980;DHT22;5543;51.734;8.744;2023-02-13T09:41:49;7.80;99.90
10980;DHT22;5543;51.734;8.744;2023-02-13T09:44:24;7.70;99.90
10980;DHT22;5543;51.734;8.744;2023-02-13T09:47:05;7.80;99.90
10980;DHT22;5543;51.734;8.744;2023-02-13T09:49:37;7.90;99.90
10980;DHT22;5543;51.734;8.744;2023-02-13T09:52:08;8.00;99.90
10980;DHT22;5543;51.734;8.744;2023-02-13T09:54:40;8.10;99.90
10980;DHT22;5543;51.734;8.744;2023-02-13T09:57:15;8.00;99.90
10980;DHT22;5543;51.734;8.744;2023-02-13T09:59:52;8.00;99.90
10980;DHT22;5543;51.734;8.744;2023-02-13T10:02:37;8.20;99.90
10980;DHT22;5543;51.734;8.744;2023-02-13T10:05:21;8.30;99.90
10980;DHT22;5543;51.734;8.744;2023-02-13T10:07:55;8.40;99.90
10980;DHT22;5543;51.734;8.744;2023-02-13T10:10:31;8.40;99.90
10980;DHT22;5543;51.734;8.744;2023-02-13T10:13:12;8.60;99.90
10980;DHT22;5543;51.734;8.744;2023-02-13T10:15:47;8.70;99.90
10980;DHT22;5543;51.734;8.744;2023-02-13T10:18:22;8.80;99.90
10980;DHT22;5543;51.734;8.744;2023-02-13T10:20:53;9.00;99.90
10980;DHT22;5543;51.734;8.744;2023-02-13T10:23:26;9.10;99.90
10980;DHT22;5543;51.734;8.744;2023-02-13T10:25:57;9.20;99.90
10980;DHT22;5543;51.734;8.744;2023-02-13T10:28:35;9.40;99.90
10980;DHT22;5543;51.734;8.744;2023-02-13T10:31:06;9.60;99.90
10980;DHT22;5543;51.734;8.744;2023-02-13T10:33:42;9.60;99.90
10980;DHT22;5543;51.734;8.744;2023-02-13T10:36:17;9.50;99.90
10980;DHT22;5543;51.734;8.744;2023-02-13T10:38:54;9.40;99.90
10980;DHT22;5543;51.734;8.744;2023-02-13T10:41:24;9.40;99.90
10980;DHT22;5543;51.734;8.744;2023-02-13T10:44:09;9.50;99.90
10980;DHT22;5543;51.734;8.744;2023-02-13T10:46:48;9.70;99.90
10980;DHT22;5543;51.734;8.744;2023-02-13T10:49:35;9.70;99.90
10980;DHT22;5543;51.734;8.744;2023-02-13T10:52:16;10.00;99.90
10980;DHT22;5543;51.734;8.744;2023-02-13T10:54:58;10.00;99.90
10980;DHT22;5543;51.734;8.744;2023-02-13T10:57:38;10.00;99.90
10980;DHT22;5543;51.734;8.744;2023-02-13T11:00:14;10.10;99.90
10980;DHT22;5543;51.734;8.744;2023-02-13T11:02:45;10.20;99.90
10980;DHT22;5543;51.734;8.744;2023-02-13T11:05:17;10.20;99.90
10980;DHT22;5543;51.734;8.744;2023-02-13T11:07:47;10.30;99.90
10980;DHT22;5543;51.734;8.744;2023-02-13T11:10:18;10.40;99.90
10980;DHT22;5543;51.734;8.744;2023-02-13T11:12:47;10.60;99.90
10980;DHT22;5543;51.734;8.744;2023-02-13T11:15:24;11.30;99.90
10980;DHT22;5543;51.734;8.744;2023-02-13T11:17:57;11.90;99.90
10980;DHT22;5543;51.734;8.744;2023-02-13T11:20:32;12.30;99.90
10980;DHT22;5543;51.734;8.744;2023-02-13T11:23:26;12.40;99.90
10980;DHT22;5543;51.734;8.744;2023-02-13T11:26:01;12.70;99.90
10980;DHT22;5543;51.734;8.744;2023-02-13T11:28:34;13.40;99.90
10980;DHT22;5543;51.734;8.744;2023-02-13T11:31:21;13.60;99.90
10980;DHT22;5543;51.734;8.744;2023-02-13T11:33:49;14.60;99.90
10980;DHT22;5543;51.734;8.744;2023-02-13T11:36:25;14.90;99.90
10980;DHT22;5543;51.734;8.744;2023-02-13T11:38:58;15.30;99.60
10980;DHT22;5543;51.734;8.744;2023-02-13T11:41:28;15.40;99.30
10980;DHT22;5543;51.734;8.744;2023-02-13T11:43:58;15.30;98.60
10980;DHT22;5543;51.734;8.744;2023-02-13T11:46:29;15.50;98.70
10980;DHT22;5543;51.734;8.744;2023-02-13T11:49:00;14.80;98.90
10980;DHT22;5543;51.734;8.744;2023-02-13T11:51:41;14.30;99.30
10980;DHT22;5543;51.734;8.744;2023-02-13T11:54:27;14.00;99.50
10980;DHT22;5543;51.734;8.744;2023-02-13T11:56:57;14.00;99.80
10980;DHT22;5543;51.734;8.744;2023-02-13T11:59:32;13.70;99.40
10980;DHT22;5543;51.734;8.744;2023-02-13T12:02:15;13.60;99.40
10980;DHT22;5543;51.734;8.744;2023-02-13T12:04:43;13.30;99.90
10980;DHT22;5543;51.734;8.744;2023-02-13T12:07:17;12.90;99.90
10980;DHT22;5543;51.734;8.744;2023-02-13T12:09:49;12.70;99.90
10980;DHT22;5543;51.734;8.744;2023-02-13T12:12:22;12.60;99.90
10980;DHT22;5543;51.734;8.744;2023-02-13T12:14:52;12.40;99.90
10980;DHT22;5543;51.734;8.744;2023-02-13T12:17:22;12.40;99.90
10980;DHT22;5543;51.734;8.744;2023-02-13T12:19:58;12.00;99.90
10980;DHT22;5543;51.734;8.744;2023-02-13T12:22:36;11.70;99.90
10980;DHT22;5543;51.734;8.744;2023-02-13T12:28:16;11.90;99.90
10980;DHT22;5543;51.734;8.744;2023-02-13T12:37:02;12.10;99.90
10980;DHT22;5543;51.734;8.744;2023-02-13T12:39:36;12.60;99.90
10980;DHT22;5543;51.734;8.744;2023-02-13T12:42:22;13.10;99.90
10980;DHT22;5543;51.734;8.744;2023-02-13T12:45:09;13.00;99.90
10980;DHT22;5543;51.734;8.744;2023-02-13T12:47:50;12.60;99.90
10980;DHT22;5543;51.734;8.744;2023-02-13T12:50:34;12.40;99.90
10980;DHT22;5543;51.734;8.744;2023-02-13T12:53:26;12.30;99.90
10980;DHT22;5543;51.734;8.744;2023-02-13T12:56:18;12.20;99.90
10980;DHT22;5543;51.734;8.744;2023-02-13T12:59:00;12.10;99.90
10980;DHT22;5543;51.734;8.744;2023-02-13T13:02:06;12.30;99.90
10980;DHT22;5543;51.734;8.744;2023-02-13T13:04:49;12.90;99.90
10980;DHT22;5543;51.734;8.744;2023-02-13T13:10:45;13.20;99.90
10980;DHT22;5543;51.734;8.744;2023-02-13T13:13:27;13.10;99.90
10980;DHT22;5543;51.734;8.744;2023-02-13T13:16:04;12.80;99.90
10980;DHT22;5543;51.734;8.744;2023-02-13T13:18:41;12.80;99.90
10980;DHT22;5543;51.734;8.744;2023-02-13T13:21:25;12.80;99.90
10980;DHT22;5543;51.734;8.744;2023-02-13T13:23:59;12.80;99.90
10980;DHT22;5543;51.734;8.744;2023-02-13T13:26:34;12.60;99.90
10980;DHT22;5543;51.734;8.744;2023-02-13T13:29:08;12.70;99.90
10980;DHT22;5543;51.734;8.744;2023-02-13T13:31:38;12.70;99.90
10980;DHT22;5543;51.734;8.744;2023-02-13T13:34:15;12.70;99.90
10980;DHT22;5543;51.734;8.744;2023-02-13T13:36:47;12.60;99.90
10980;DHT22;5543;51.734;8.744;2023-02-13T13:39:26;12.70;99.90
10980;DHT22;5543;51.734;8.744;2023-02-13T13:42:05;12.80;99.90
10980;DHT22;5543;51.734;8.744;2023-02-13T13:47:53;12.90;99.90
10980;DHT22;5543;51.734;8.744;2023-02-13T13:50:25;12.90;99.90
10980;DHT22;5543;51.734;8.744;2023-02-13T13:53:09;13.00;99.90
10980;DHT22;5543;51.734;8.744;2023-02-13T13:56:04;13.20;99.90
10980;DHT22;5543;51.734;8.744;2023-02-13T13:58:40;13.30;99.90
10980;DHT22;5543;51.734;8.744;2023-02-13T14:01:23;13.40;99.90
10980;DHT22;5543;51.734;8.744;2023-02-13T14:03:54;13.50;99.90
10980;DHT22;5543;51.734;8.744;2023-02-13T14:06:26;13.30;99.90
10980;DHT22;5543;51.734;8.744;2023-02-13T14:08:58;13.20;99.90
10980;DHT22;5543;51.734;8.744;2023-02-13T14:11:44;13.60;99.90
10980;DHT22;5543;51.734;8.744;2023-02-13T14:17:49;14.50;99.90
10980;DHT22;5543;51.734;8.744;2023-02-13T14:20:36;14.60;99.80
10980;DHT22;5543;51.734;8.744;2023-02-13T14:23:12;14.30;99.90
10980;DHT22;5543;51.734;8.744;2023-02-13T14:25:41;14.00;99.90
10980;DHT22;5543;51.734;8.744;2023-02-13T14:28:20;13.60;99.90
10980;DHT22;5543;51.734;8.744;2023-02-13T14:30:49;13.20;99.90
10980;DHT22;5543;51.734;8.744;2023-02-13T14:33:24;12.80;99.90
10980;DHT22;5543;51.734;8.744;2023-02-13T14:36:03;12.60;99.90
10980;DHT22;5543;51.734;8.744;2023-02-13T14:38:33;12.60;99.90
10980;DHT22;5543;51.734;8.744;2023-02-13T14:41:02;12.70;99.90
10980;DHT22;5543;51.734;8.744;2023-02-13T14:43:36;12.70;99.90
10980;DHT22;5543;51.734;8.744;2023-02-13T14:46:23;12.30;99.90
10980;DHT22;5543;51.734;8.744;2023-02-13T14:48:58;12.10;99.90
10980;DHT22;5543;51.734;8.744;2023-02-13T14:51:33;12.00;99.90
10980;DHT22;5543;51.734;8.744;2023-02-13T14:54:06;12.00;99.90
10980;DHT22;5543;51.734;8.744;2023-02-13T14:56:37;11.80;99.90
10980;DHT22;5543;51.734;8.744;2023-02-13T14:59:11;11.70;99.90
10980;DHT22;5543;51.734;8.744;2023-02-13T15:01:49;11.80;99.90
10980;DHT22;5543;51.734;8.744;2023-02-13T15:04:26;11.70;99.90
10980;DHT22;5543;51.734;8.744;2023-02-13T15:06:59;11.60;99.90
10980;DHT22;5543;51.734;8.744;2023-02-13T15:09:32;11.40;99.90
10980;DHT22;5543;51.734;8.744;2023-02-13T15:12:04;11.20;99.90
10980;DHT22;5543;51.734;8.744;2023-02-13T15:14:50;11.00;99.90
10980;DHT22;5543;51.734;8.744;2023-02-13T15:17:21;10.90;99.90
10980;DHT22;5543;51.734;8.744;2023-02-13T15:19:51;10.70;99.90
10980;DHT22;5543;51.734;8.744;2023-02-13T15:22:29;10.70;99.90
10980;DHT22;5543;51.734;8.744;2023-02-13T15:24:58;10.60;99.90
10980;DHT22;5543;51.734;8.744;2023-02-13T15:27:28;10.50;99.90
10980;DHT22;5543;51.734;8.744;2023-02-13T15:29:59;10.40;99.90
10980;DHT22;5543;51.734;8.744;2023-02-13T15:32:31;10.40;99.90
10980;DHT22;5543;51.734;8.744;2023-02-13T15:34:59;10.30;99.90
10980;DHT22;5543;51.734;8.744;2023-02-13T15:37:29;10.20;99.90
10980;DHT22;5543;51.734;8.744;2023-02-13T15:40:15;10.20;99.90
10980;DHT22;5543;51.734;8.744;2023-02-13T15:42:43;10.10;99.90
10980;DHT22;5543;51.734;8.744;2023-02-13T15:45:16;10.00;99.90
10980;DHT22;5543;51.734;8.744;2023-02-13T15:47:46;10.00;99.90
10980;DHT22;5543;51.734;8.744;2023-02-13T15:50:16;9.90;99.90
10980;DHT22;5543;51.734;8.744;2023-02-13T15:52:46;9.90;99.90
10980;DHT22;5543;51.734;8.744;2023-02-13T15:55:20;9.80;99.90
10980;DHT22;5543;51.734;8.744;2023-02-13T15:57:49;9.80;99.90
10980;DHT22;5543;51.734;8.744;2023-02-13T16:00:22;9.70;99.90
10980;DHT22;5543;51.734;8.744;2023-02-13T16:02:53;9.70;99.90
10980;DHT22;5543;51.734;8.744;2023-02-13T16:05:24;9.60;99.90
10980;DHT22;5543;51.734;8.744;2023-02-13T16:08:30;9.60;99.90
10980;DHT22;5543;51.734;8.744;2023-02-13T16:11:24;9.50;99.90
10980;DHT22;5543;51.734;8.744;2023-02-13T16:14:03;9.30;99.90
10980;DHT22;5543;51.734;8.744;2023-02-13T16:16:35;9.20;99.90
10980;DHT22;5543;51.734;8.744;2023-02-13T16:19:20;9.10;99.90
10980;DHT22;5543;51.734;8.744;2023-02-13T16:21:49;9.00;99.90
10980;DHT22;5543;51.734;8.744;2023-02-13T16:24:20;8.90;99.90
10980;DHT22;5543;51.734;8.744;2023-02-13T16:26:49;8.70;99.90
10980;DHT22;5543;51.734;8.744;2023-02-13T16:29:19;8.60;99.90
10980;DHT22;5543;51.734;8.744;2023-02-13T16:31:49;8.50;99.90
10980;DHT22;5543;51.734;8.744;2023-02-13T16:34:26;8.40;99.90
10980;DHT22;5543;51.734;8.744;2023-02-13T16:36:54;8.30;99.90
10980;DHT22;5543;51.734;8.744;2023-02-13T16:39:28;8.20;99.90
10980;DHT22;5543;51.734;8.744;2023-02-13T16:41:58;8.10;99.90
10980;DHT22;5543;51.734;8.744;2023-02-13T16:44:28;8.10;99.90
10980;DHT22;5543;51.734;8.744;2023-02-13T16:46:58;8.00;99.90
10980;DHT22;5543;51.734;8.744;2023-02-13T16:49:28;7.90;99.90
10980;DHT22;5543;51.734;8.744;2023-02-13T16:52:09;7.80;99.90
10980;DHT22;5543;51.734;8.744;2023-02-13T16:54:52;7.90;99.90
10980;DHT22;5543;51.734;8.744;2023-02-13T16:57:25;7.60;99.90
10980;DHT22;5543;51.734;8.744;2023-02-13T16:59:59;7.50;99.90
10980;DHT22;5543;51.734;8.744;2023-02-13T17:02:29;7.40;99.90
10980;DHT22;5543;51.734;8.744;2023-02-13T17:05:15;7.30;99.90
10980;DHT22;5543;51.734;8.744;2023-02-13T17:07:44;7.10;99.90